Time;durP1;ratioP1;P1;durP2;ratioP2;P2;SDS_P1;SDS_P2;PMS_P1;PMS_P2;Temp;Humidity;BMP_temperature;BMP_pressure;BME280_temperature;BME280_humidity;BME280_pressure;Samples;Min_cycle;Max_cycle;Signal;HPM_P1;HPM_P2
2022/08/07 00:02:05;;;;;;;10.10;8.00;;;12.30;99.90;;;;;;5106914;27;20572;-48
2022/08/07 00:04:32;;;;;;;10.07;8.80;;;12.30;99.90;;;;;;5097929;27;20613;-51
2022/08/07 00:06:59;;;;;;;9.50;8.20;;;12.20;99.90;;;;;;5106892;28;20193;-49
2022/08/07 00:09:26;;;;;;;8.87;8.03;;;;;;;;;;5097701;27;20225;-51
2022/08/07 00:11:54;;;;;;;10.13;8.13;;;12.00;99.90;;;;;;5106606;27;20193;-53
2022/08/07 00:14:21;;;;;;;9.47;7.93;;;12.00;99.90;;;;;;5112598;27;20227;-51
2022/08/07 00:16:48;;;;;;;9.07;8.00;;;11.90;99.90;;;;;;5106960;27;20272;-47
2022/08/07 00:19:16;;;;;;;11.53;9.07;;;11.90;99.90;;;;;;5112513;27;20568;-51
2022/08/07 00:21:43;;;;;;;10.90;8.40;;;;;;;;;;5122743;27;20197;-48
2022/08/07 00:24:11;;;;;;;9.17;8.27;;;11.70;99.90;;;;;;5125639;27;20197;-49
2022/08/07 00:26:38;;;;;;;9.17;8.27;;;11.70;99.90;;;;;;5104359;27;20197;-48
2022/08/07 00:29:05;;;;;;;10.47;8.43;;;11.70;99.90;;;;;;5112340;27;20221;-48
2022/08/07 00:31:31;;;;;;;9.87;8.50;;;11.70;99.90;;;;;;5101362;27;20208;-50
2022/08/07 00:33:59;;;;;;;9.37;8.43;;;11.80;99.90;;;;;;5102013;27;20231;-50
2022/08/07 00:36:28;;;;;;;9.60;8.60;;;11.80;99.90;;;;;;5104002;27;20204;-50
2022/08/07 00:38:55;;;;;;;10.40;8.60;;;11.80;99.90;;;;;;5104004;27;20221;-50
2022/08/07 00:41:26;;;;;;;8.00;7.30;;;11.80;99.90;;;;;;5095584;27;20695;-51
2022/08/07 00:43:53;;;;;;;9.37;7.67;;;11.70;99.90;;;;;;5106446;27;20217;-50
2022/08/07 00:46:20;;;;;;;8.97;8.03;;;11.70;99.90;;;;;;5115204;27;20207;-49
2022/08/07 00:48:47;;;;;;;11.70;8.50;;;11.60;99.90;;;;;;5099339;27;20217;-49
2022/08/07 00:51:14;;;;;;;12.30;8.50;;;11.50;99.90;;;;;;5109033;27;20201;-47
2022/08/07 00:53:42;;;;;;;8.70;7.77;;;11.50;99.90;;;;;;5101751;27;20542;-48
2022/08/07 00:56:11;;;;;;;9.37;7.73;;;11.50;99.90;;;;;;5104746;28;20220;-48
2022/08/07 00:58:42;;;;;;;8.77;7.67;;;11.50;99.90;;;;;;5101289;27;20292;-50
2022/08/07 01:01:09;;;;;;;9.00;8.10;;;11.40;99.90;;;;;;5106655;27;20225;-51
2022/08/07 01:03:36;;;;;;;9.00;7.67;;;11.40;99.90;;;;;;5100958;28;20207;-50
2022/08/07 01:06:03;;;;;;;10.00;7.70;;;11.50;99.90;;;;;;5107973;27;20213;-46
2022/08/07 01:08:30;;;;;;;8.63;7.73;;;11.60;99.90;;;;;;5120450;27;20592;-51
2022/08/07 01:10:58;;;;;;;10.00;8.00;;;11.60;99.90;;;;;;5123464;27;20567;-48
2022/08/07 01:13:25;;;;;;;9.17;7.87;;;11.60;99.90;;;;;;5105376;27;20733;-52
2022/08/07 01:15:52;;;;;;;11.27;8.00;;;11.50;99.90;;;;;;5111028;27;20188;-50
2022/08/07 01:18:20;;;;;;;9.20;7.53;;;11.40;99.90;;;;;;5107985;27;20240;-48
2022/08/07 01:21:01;;;;;;;9.13;7.30;;;11.40;99.90;;;;;;5102258;27;20776;-47
2022/08/07 01:23:32;;;;;;;8.13;7.33;;;11.40;99.90;;;;;;5103087;27;20711;-49
2022/08/07 01:26:00;;;;;;;8.67;7.40;;;11.30;99.90;;;;;;5103442;28;20225;-52
2022/08/07 01:28:28;;;;;;;7.70;6.90;;;11.30;99.90;;;;;;5090578;27;20316;-51
2022/08/07 01:30:55;;;;;;;8.57;7.27;;;11.30;99.90;;;;;;5113122;27;20208;-54
2022/08/07 01:33:24;;;;;;;8.80;7.90;;;11.40;99.90;;;;;;5102307;27;20193;-47
2022/08/07 01:35:54;;;;;;;9.00;7.70;;;11.40;99.90;;;;;;5102833;27;20212;-52
2022/08/07 01:38:24;;;;;;;8.50;7.30;;;11.50;99.90;;;;;;5121320;27;20213;-49
2022/08/07 01:40:54;;;;;;;8.60;7.23;;;11.50;99.90;;;;;;5122951;27;20293;-48
2022/08/07 01:43:22;;;;;;;7.73;6.83;;;11.40;99.90;;;;;;5100705;28;20204;-46
2022/08/07 01:45:50;;;;;;;9.33;6.90;;;11.30;99.90;;;;;;5095635;27;20197;-51
2022/08/07 01:48:18;;;;;;;7.97;7.17;;;11.20;99.90;;;;;;5105577;27;20209;-50
2022/08/07 01:50:53;;;;;;;9.63;6.83;;;11.20;99.90;;;;;;5103642;27;20205;-53
2022/08/07 01:53:22;;;;;;;11.77;7.73;;;11.30;99.90;;;;;;5112460;27;20207;-51
2022/08/07 01:56:02;;;;;;;8.67;6.13;;;11.30;99.90;;;;;;5121743;27;20838;-49
2022/08/07 01:58:43;;;;;;;8.80;7.00;;;11.30;99.90;;;;;;5122141;27;20220;-54
2022/08/07 02:01:15;;;;;;;10.63;7.70;;;11.30;99.90;;;;;;5097295;27;20200;-50
2022/08/07 02:03:45;;;;;;;10.93;7.40;;;11.30;99.90;;;;;;5108396;27;20296;-53
2022/08/07 02:06:16;;;;;;;7.83;7.13;;;11.30;99.90;;;;;;5099399;27;20533;-51
2022/08/07 02:08:47;;;;;;;8.57;7.67;;;11.30;99.90;;;;;;5105415;27;20220;-51
2022/08/07 02:11:16;;;;;;;10.30;7.50;;;11.20;99.90;;;;;;5100139;27;20217;-49
2022/08/07 02:13:44;;;;;;;8.17;7.37;;;11.30;99.90;;;;;;5102631;27;20212;-51
2022/08/07 02:16:11;;;;;;;8.60;7.40;;;11.30;99.90;;;;;;5094614;27;20788;-52
2022/08/07 02:18:39;;;;;;;9.27;7.30;;;11.20;99.90;;;;;;5104255;27;20213;-51
2022/08/07 02:21:07;;;;;;;7.67;6.97;;;11.30;99.90;;;;;;5101040;28;20197;-52
2022/08/07 02:23:39;;;;;;;7.43;6.73;;;11.30;99.90;;;;;;5099298;27;20230;-49
2022/08/07 02:26:08;;;;;;;9.60;7.20;;;11.30;99.90;;;;;;5119286;27;20204;-51
2022/08/07 02:28:38;;;;;;;7.13;6.43;;;11.30;99.90;;;;;;5124025;27;20220;-48
2022/08/07 02:31:07;;;;;;;9.80;7.20;;;11.30;99.90;;;;;;5097857;27;20569;-50
2022/08/07 02:33:36;;;;;;;8.90;7.10;;;11.30;99.90;;;;;;5113833;27;20199;-52
2022/08/07 02:36:05;;;;;;;8.10;7.20;;;11.30;99.90;;;;;;5100055;28;20228;-50
2022/08/07 02:38:37;;;;;;;7.63;6.90;;;11.30;99.90;;;;;;5102686;28;20316;-52
2022/08/07 02:41:05;;;;;;;9.17;7.23;;;11.20;99.90;;;;;;5094020;28;20201;-52
2022/08/07 02:43:38;;;;;;;7.83;6.97;;;11.30;99.90;;;;;;5102229;28;20228;-50
2022/08/07 02:46:06;;;;;;;7.97;7.17;;;11.30;99.90;;;;;;5093225;28;20223;-52
2022/08/07 02:48:35;;;;;;;8.03;6.63;;;11.30;99.90;;;;;;5110347;27;20209;-49
2022/08/07 02:51:10;;;;;;;9.13;6.77;;;11.20;99.90;;;;;;5099728;28;20200;-52
2022/08/07 02:53:40;;;;;;;8.10;7.27;;;11.20;99.90;;;;;;5102321;28;20228;-47
2022/08/07 02:56:19;;;;;;;9.00;6.70;;;11.20;99.90;;;;;;5092830;28;21012;-50
2022/08/07 02:58:49;;;;;;;7.37;6.57;;;11.20;99.90;;;;;;5116669;28;20951;-49
2022/08/07 03:01:18;;;;;;;7.83;6.73;;;11.10;99.90;;;;;;5104079;28;20212;-49
2022/08/07 03:03:46;;;;;;;7.43;6.63;;;11.20;99.90;;;;;;5111326;28;20200;-48
2022/08/07 03:06:18;;;;;;;8.10;6.90;;;11.10;99.90;;;;;;5099059;28;20197;-50
2022/08/07 03:08:46;;;;;;;7.83;6.57;;;10.90;99.90;;;;;;5103773;28;20216;-51
2022/08/07 03:11:13;;;;;;;8.03;6.60;;;10.80;99.90;;;;;;5092676;28;20189;-53
2022/08/07 03:13:43;;;;;;;8.10;6.23;;;10.70;99.90;;;;;;5103235;28;20280;-48
2022/08/07 03:16:13;;;;;;;8.23;7.03;;;10.70;99.90;;;;;;5092375;28;23924;-50
2022/08/07 03:18:40;;;;;;;9.13;7.67;;;10.70;99.90;;;;;;5117740;28;20235;-47
2022/08/07 03:21:08;;;;;;;8.97;6.67;;;10.60;99.90;;;;;;5101618;28;20254;-53
2022/08/07 03:23:39;;;;;;;6.67;5.97;;;10.60;99.90;;;;;;5103770;28;20565;-49
2022/08/07 03:26:07;;;;;;;7.73;6.47;;;10.60;99.90;;;;;;5100001;27;20236;-54
2022/08/07 03:28:40;;;;;;;10.00;7.17;;;10.50;99.90;;;;;;5126042;27;20282;-48
2022/08/07 03:31:19;;;;;;;7.37;6.67;;;10.40;99.90;;;;;;5122432;27;20204;-51
2022/08/07 03:33:57;;;;;;;8.40;6.67;;;10.40;99.90;;;;;;5101280;27;20236;-51
2022/08/07 03:36:27;;;;;;;7.77;6.60;;;10.50;99.90;;;;;;5110590;27;20200;-48
2022/08/07 03:38:59;;;;;;;7.20;6.23;;;10.60;99.90;;;;;;5105312;27;20225;-52
2022/08/07 03:41:26;;;;;;;7.83;7.00;;;10.50;99.90;;;;;;5101079;27;20282;-52
2022/08/07 03:43:55;;;;;;;7.20;6.30;;;;;;;;;;5107145;27;20201;-53
2022/08/07 03:46:25;;;;;;;6.57;5.80;;;;;;;;;;5115706;27;20192;-49
2022/08/07 03:48:54;;;;;;;7.87;7.07;;;;;;;;;;5100657;27;20319;-52
2022/08/07 03:51:23;;;;;;;7.57;6.83;;;;;;;;;;5114877;27;20268;-53
2022/08/07 03:53:52;;;;;;;7.93;6.97;;;;;;;;;;5105256;27;20282;-52
2022/08/07 03:56:23;;;;;;;11.00;7.20;;;;;;;;;;5099184;27;20216;-48
2022/08/07 03:58:52;;;;;;;9.97;6.67;;;;;;;;;;5109983;27;20304;-49
2022/08/07 04:01:21;;;;;;;7.13;6.43;;;;;;;;;;5103991;27;20497;-49
2022/08/07 04:03:50;;;;;;;8.80;6.97;;;;;;;;;;5095103;27;20203;-50
2022/08/07 04:06:20;;;;;;;6.70;5.90;;;;;;;;;;5106167;27;20204;-51
2022/08/07 04:08:48;;;;;;;9.47;6.83;;;;;;;;;;5105611;27;20306;-51
2022/08/07 04:11:16;;;;;;;7.37;6.67;;;;;;;;;;5101649;27;20217;-49
2022/08/07 04:13:45;;;;;;;8.00;6.70;;;;;;;;;;5101420;27;20208;-52
2022/08/07 04:16:13;;;;;;;9.90;6.57;;;;;;;;;;5106484;27;20245;-52
2022/08/07 04:18:41;;;;;;;8.90;6.73;;;;;;;;;;5110837;27;20218;-49
2022/08/07 04:21:10;;;;;;;6.80;6.10;;;;;;;;;;5099127;27;20609;-52
2022/08/07 04:23:42;;;;;;;7.63;6.63;;;;;;;;;;5109326;27;20194;-52
2022/08/07 04:26:09;;;;;;;8.27;6.67;;;10.30;99.90;;;;;;5101225;27;20213;-51
2022/08/07 04:28:36;;;;;;;7.73;6.17;;;10.30;99.90;;;;;;5099500;27;20317;-49
2022/08/07 04:31:04;;;;;;;7.70;6.53;;;10.20;99.90;;;;;;5121084;27;20285;-53
2022/08/07 04:33:34;;;;;;;7.53;6.43;;;10.20;99.90;;;;;;5124004;27;20299;-47
2022/08/07 04:36:02;;;;;;;7.23;6.23;;;10.30;99.90;;;;;;5103893;27;20237;-50
2022/08/07 04:38:29;;;;;;;6.77;6.07;;;10.30;99.90;;;;;;5106430;27;20240;-52
2022/08/07 04:40:59;;;;;;;7.97;6.70;;;10.30;99.90;;;;;;5103433;27;20205;-50
2022/08/07 04:43:43;;;;;;;9.07;7.37;;;10.30;99.90;;;;;;5117852;27;20215;-49
2022/08/07 04:46:14;;;;;;;7.90;6.77;;;10.40;99.90;;;;;;5099516;27;20254;-50
2022/08/07 04:48:49;;;;;;;7.47;6.67;;;10.40;99.90;;;;;;5117129;27;20237;-50
2022/08/07 04:51:26;;;;;;;10.33;7.40;;;10.40;99.90;;;;;;5095272;27;20216;-48
2022/08/07 04:54:01;;;;;;;7.67;6.33;;;10.50;99.90;;;;;;5112790;27;20197;-51
2022/08/07 04:56:39;;;;;;;9.17;7.40;;;10.60;99.90;;;;;;5103602;27;20193;-52
2022/08/07 04:59:10;;;;;;;7.87;7.00;;;10.60;99.90;;;;;;5109419;27;20635;-53
2022/08/07 05:01:42;;;;;;;7.60;6.80;;;10.70;99.90;;;;;;5104416;28;20197;-50
2022/08/07 05:04:15;;;;;;;7.70;6.77;;;10.70;99.90;;;;;;5101193;27;20900;-48
2022/08/07 05:06:52;;;;;;;7.90;7.10;;;10.70;99.90;;;;;;5097286;27;20224;-52
2022/08/07 05:09:26;;;;;;;6.73;6.03;;;10.80;99.90;;;;;;5103258;27;20869;-48
2022/08/07 05:11:54;;;;;;;7.83;6.63;;;10.80;99.90;;;;;;5103490;28;20247;-52
2022/08/07 05:14:27;;;;;;;9.07;6.90;;;10.90;99.90;;;;;;5098044;27;20206;-48
2022/08/07 05:17:00;;;;;;;8.63;6.43;;;10.90;99.90;;;;;;5113845;27;20194;-53
2022/08/07 05:19:35;;;;;;;8.20;7.03;;;11.00;99.90;;;;;;5122643;27;20304;-52
2022/08/07 05:22:04;;;;;;;8.73;7.33;;;11.00;99.90;;;;;;5100650;27;20292;-51
2022/08/07 05:24:36;;;;;;;8.27;6.27;;;11.10;99.90;;;;;;5115101;27;20604;-49
2022/08/07 05:27:07;;;;;;;7.87;7.07;;;11.20;99.90;;;;;;5102677;28;20270;-52
2022/08/07 05:29:37;;;;;;;7.60;6.73;;;11.30;99.90;;;;;;5105271;27;20747;-54
2022/08/07 05:32:07;;;;;;;8.27;7.00;;;11.40;99.90;;;;;;5094892;27;20206;-52
2022/08/07 05:34:36;;;;;;;7.30;6.63;;;11.50;99.90;;;;;;5104819;27;20207;-48
2022/08/07 05:37:04;;;;;;;8.03;7.23;;;11.50;99.90;;;;;;5094144;27;20201;-53
2022/08/07 05:39:37;;;;;;;9.43;7.57;;;11.60;99.90;;;;;;5113151;27;20307;-48
2022/08/07 05:42:07;;;;;;;8.57;7.53;;;11.70;99.90;;;;;;5101672;27;20254;-52
2022/08/07 05:44:38;;;;;;;9.03;7.47;;;11.80;99.90;;;;;;5107279;27;20198;-50
2022/08/07 05:47:07;;;;;;;9.77;6.83;;;11.90;99.90;;;;;;5095718;27;20217;-52
2022/08/07 05:49:36;;;;;;;10.20;8.17;;;12.00;99.90;;;;;;5114414;27;20236;-51
2022/08/07 05:52:05;;;;;;;8.33;7.23;;;12.10;99.90;;;;;;5094117;27;20228;-50
2022/08/07 05:54:32;;;;;;;12.57;7.97;;;12.20;99.90;;;;;;5105777;27;20216;-48
2022/08/07 05:57:02;;;;;;;9.10;7.07;;;12.30;99.90;;;;;;5110015;27;20665;-53
2022/08/07 05:59:36;;;;;;;7.63;6.87;;;12.50;99.90;;;;;;5110117;27;20308;-50
2022/08/07 06:02:06;;;;;;;7.93;5.87;;;12.60;99.90;;;;;;5098032;27;20204;-53
2022/08/07 06:04:35;;;;;;;8.40;7.03;;;12.70;99.90;;;;;;5109936;27;20199;-47
2022/08/07 06:07:04;;;;;;;11.23;7.30;;;12.80;99.90;;;;;;5114156;27;20558;-50
2022/08/07 06:09:35;;;;;;;8.63;6.30;;;13.00;99.90;;;;;;5089852;27;20241;-52
2022/08/07 06:12:05;;;;;;;8.07;6.00;;;13.10;99.90;;;;;;5107946;27;20221;-52
2022/08/07 06:14:34;;;;;;;8.30;6.37;;;13.30;99.90;;;;;;5104603;27;20194;-53
2022/08/07 06:17:04;;;;;;;10.53;6.83;;;13.50;99.90;;;;;;5096609;27;20213;-52
2022/08/07 06:19:35;;;;;;;10.20;7.53;;;13.60;99.90;;;;;;5103476;27;20635;-54
2022/08/07 06:22:04;;;;;;;10.83;7.30;;;13.80;99.90;;;;;;5106859;27;20189;-51
2022/08/07 06:24:31;;;;;;;10.93;8.10;;;13.90;99.90;;;;;;5096334;27;20299;-48
2022/08/07 06:26:58;;;;;;;13.23;7.50;;;14.00;99.90;;;;;;5108435;27;20201;-52
2022/08/07 06:29:27;;;;;;;8.67;7.20;;;14.10;99.90;;;;;;5108536;27;20223;-48
2022/08/07 06:31:55;;;;;;;10.73;7.50;;;14.30;99.90;;;;;;5098818;27;20220;-51
2022/08/07 06:34:24;;;;;;;10.77;7.23;;;14.40;99.90;;;;;;5104719;27;20189;-49
2022/08/07 06:36:52;;;;;;;12.67;7.93;;;14.60;99.90;;;;;;5108049;27;20196;-51
2022/08/07 06:39:22;;;;;;;8.93;7.27;;;14.70;99.90;;;;;;5099950;28;20236;-53
2022/08/07 06:41:57;;;;;;;10.27;7.07;;;14.80;99.90;;;;;;5100081;27;20250;-52
2022/08/07 06:44:35;;;;;;;8.37;6.80;;;14.90;99.90;;;;;;5100381;28;20197;-51
2022/08/07 06:47:04;;;;;;;9.67;7.07;;;15.00;99.90;;;;;;5102766;28;20250;-54
2022/08/07 06:49:31;;;;;;;7.50;6.70;;;15.10;99.90;;;;;;5102929;28;20747;-53
2022/08/07 06:51:59;;;;;;;9.10;7.17;;;15.20;99.90;;;;;;5109118;28;20213;-53
2022/08/07 06:54:27;;;;;;;8.20;6.53;;;15.20;99.90;;;;;;5101557;28;20204;-53
2022/08/07 06:56:56;;;;;;;9.83;7.07;;;15.30;99.90;;;;;;5093973;27;20475;-53
2022/08/07 06:59:33;;;;;;;10.23;6.70;;;15.40;99.90;;;;;;5118158;27;20208;-52
2022/08/07 07:02:07;;;;;;;9.03;6.47;;;15.50;99.90;;;;;;5098954;27;20823;-54
2022/08/07 07:04:37;;;;;;;9.47;6.77;;;15.60;99.90;;;;;;5105834;27;20250;-53
2022/08/07 07:07:06;;;;;;;7.13;5.83;;;15.60;99.90;;;;;;5104176;27;20926;-50
2022/08/07 07:09:32;;;;;;;5.93;5.23;;;15.80;99.90;;;;;;5108107;27;20584;-50
2022/08/07 07:12:17;;;;;;;7.17;5.00;;;15.90;99.90;;;;;;5099814;27;20250;-54
2022/08/07 07:14:50;;;;;;;6.20;4.73;;;16.00;99.90;;;;;;5115483;27;20272;-53
2022/08/07 07:17:26;;;;;;;6.60;4.80;;;16.20;99.90;;;;;;5108964;27;20877;-52
2022/08/07 07:19:59;;;;;;;4.90;4.47;;;16.20;99.90;;;;;;5102017;27;20204;-51
2022/08/07 07:22:28;;;;;;;7.27;4.80;;;16.30;99.90;;;;;;5107607;27;20193;-51
2022/08/07 07:24:56;;;;;;;5.07;4.30;;;16.30;99.90;;;;;;5104956;27;20205;-55
2022/08/07 07:27:26;;;;;;;7.17;3.80;;;16.40;99.90;;;;;;5096279;27;20305;-52
2022/08/07 07:29:56;;;;;;;6.40;3.80;;;16.50;99.90;;;;;;5108078;27;20197;-54
2022/08/07 07:32:25;;;;;;;4.77;4.33;;;16.60;99.90;;;;;;5110873;27;20209;-48
2022/08/07 07:34:57;;;;;;;5.70;4.30;;;16.70;99.90;;;;;;5101739;27;20248;-53
2022/08/07 07:37:25;;;;;;;4.70;3.70;;;16.80;99.90;;;;;;5126235;27;20208;-52
2022/08/07 07:39:57;;;;;;;3.83;3.53;;;16.80;99.90;;;;;;5125322;27;20197;-50
2022/08/07 07:42:26;;;;;;;5.80;3.43;;;16.80;99.90;;;;;;5126151;27;20212;-52
2022/08/07 07:44:55;;;;;;;3.80;3.37;;;16.90;99.90;;;;;;5100406;27;20216;-54
2022/08/07 07:47:24;;;;;;;4.87;3.10;;;17.00;99.90;;;;;;5110308;27;20214;-52
2022/08/07 07:49:53;;;;;;;3.60;3.30;;;17.00;99.90;;;;;;5103011;27;20197;-55
2022/08/07 07:52:22;;;;;;;3.63;3.33;;;17.10;99.90;;;;;;5110218;27;20322;-48
2022/08/07 07:54:50;;;;;;;5.20;3.43;;;17.10;99.90;;;;;;5100896;27;20682;-55
2022/08/07 07:57:20;;;;;;;4.97;3.40;;;17.10;99.90;;;;;;5104375;27;20205;-54
2022/08/07 07:59:49;;;;;;;3.33;3.03;;;17.20;99.90;;;;;;5093932;27;20300;-54
2022/08/07 08:02:18;;;;;;;4.20;3.03;;;17.20;99.90;;;;;;5116340;27;20181;-54
2022/08/07 08:04:47;;;;;;;3.80;2.67;;;17.30;99.90;;;;;;5106620;27;20197;-54
2022/08/07 08:07:16;;;;;;;3.80;3.23;;;17.30;99.90;;;;;;5103724;27;20201;-52
2022/08/07 08:09:46;;;;;;;3.63;3.33;;;17.40;99.90;;;;;;5117822;27;20212;-54
2022/08/07 08:12:13;;;;;;;3.20;2.90;;;17.50;99.90;;;;;;5116288;27;22580;-51
2022/08/07 08:14:41;;;;;;;2.93;2.73;;;17.60;99.90;;;;;;5098717;27;20681;-52
2022/08/07 08:17:09;;;;;;;3.50;3.23;;;17.70;99.90;;;;;;5115262;27;20258;-50
2022/08/07 08:19:39;;;;;;;4.23;3.27;;;17.70;99.90;;;;;;5112093;27;20227;-55
2022/08/07 08:27:41;;;;;;;3.77;3.30;;;17.90;99.90;;;;;;5112442;27;20200;-52
2022/08/07 08:30:10;;;;;;;3.63;3.17;;;17.90;99.90;;;;;;5096599;27;20201;-51
2022/08/07 08:32:41;;;;;;;3.37;3.07;;;18.00;99.90;;;;;;5122554;27;20261;-52
2022/08/07 08:35:11;;;;;;;4.57;2.83;;;18.10;99.90;;;;;;5109355;27;20268;-51
2022/08/07 08:37:43;;;;;;;3.53;2.77;;;18.10;99.90;;;;;;5102045;27;20254;-54
2022/08/07 08:40:18;;;;;;;3.77;2.97;;;18.10;99.90;;;;;;5115280;27;20193;-54
2022/08/07 08:42:56;;;;;;;4.83;3.30;;;18.10;99.90;;;;;;5109666;27;20201;-51
2022/08/07 08:45:33;;;;;;;3.33;3.03;;;18.30;99.90;;;;;;5106300;27;20210;-53
2022/08/07 08:48:08;;;;;;;5.10;3.30;;;18.30;99.80;;;;;;5098989;27;20219;-56
2022/08/07 08:50:44;;;;;;;3.70;3.30;;;18.50;98.70;;;;;;5109949;27;20207;-54
2022/08/07 08:53:24;;;;;;;3.70;3.40;;;18.50;99.00;;;;;;5105399;27;20199;-54
2022/08/07 08:55:56;;;;;;;4.50;3.07;;;18.60;99.50;;;;;;5103421;28;20216;-56
2022/08/07 08:58:34;;;;;;;3.57;3.20;;;18.70;99.10;;;;;;5100342;27;20225;-56
2022/08/07 09:01:09;;;;;;;3.80;3.50;;;18.70;98.70;;;;;;5101401;27;20257;-55
2022/08/07 09:03:48;;;;;;;3.90;3.10;;;18.90;98.30;;;;;;5101060;27;20197;-54
2022/08/07 09:06:27;;;;;;;4.77;3.17;;;18.90;97.60;;;;;;5112280;27;20193;-55
2022/08/07 09:09:02;;;;;;;4.63;3.50;;;18.80;97.80;;;;;;5103602;27;20273;-50
2022/08/07 09:11:39;;;;;;;3.60;3.30;;;18.90;97.30;;;;;;5105762;27;20209;-53
2022/08/07 09:14:12;;;;;;;3.63;3.03;;;19.00;97.40;;;;;;5100515;27;20204;-53
2022/08/07 09:16:54;;;;;;;3.10;2.90;;;19.10;96.80;;;;;;5104133;27;20284;-55
2022/08/07 09:19:30;;;;;;;4.00;3.70;;;19.20;95.60;;;;;;5102531;27;20340;-55
2022/08/07 09:22:09;;;;;;;3.27;2.97;;;19.20;95.50;;;;;;5106148;27;20534;-56
2022/08/07 09:24:52;;;;;;;3.47;3.27;;;19.20;95.40;;;;;;5100592;27;20198;-55
2022/08/07 09:27:29;;;;;;;4.10;2.80;;;19.20;94.90;;;;;;5114219;27;20528;-57
2022/08/07 09:30:02;;;;;;;3.27;3.00;;;19.20;95.40;;;;;;5106095;27;20266;-57
2022/08/07 09:32:48;;;;;;;2.70;2.50;;;19.20;95.30;;;;;;5102044;27;20224;-57
2022/08/07 09:35:26;;;;;;;3.80;2.77;;;19.20;94.30;;;;;;5099544;27;20200;-57
2022/08/07 09:38:02;;;;;;;3.67;2.93;;;19.30;94.40;;;;;;5110651;27;20706;-57
2022/08/07 09:40:38;;;;;;;3.37;2.57;;;19.40;94.60;;;;;;5107415;27;20268;-55
2022/08/07 09:43:17;;;;;;;3.13;2.93;;;19.40;94.30;;;;;;5113350;27;20978;-57
2022/08/07 09:45:53;;;;;;;3.10;2.60;;;19.40;94.20;;;;;;5106361;27;20212;-57
2022/08/07 09:48:34;;;;;;;3.50;2.80;;;19.30;93.90;;;;;;5104613;27;20208;-55
2022/08/07 09:51:15;;;;;;;3.47;3.10;;;19.20;94.30;;;;;;5103470;27;20882;-58
2022/08/07 09:53:50;;;;;;;3.47;3.17;;;19.20;94.60;;;;;;5101707;27;20558;-58
2022/08/07 09:56:40;;;;;;;4.20;3.67;;;19.30;94.70;;;;;;5102747;28;20189;-57
2022/08/07 09:59:31;;;;;;;3.17;2.87;;;19.40;94.40;;;;;;5098739;27;20225;-57
2022/08/07 10:02:12;;;;;;;2.97;2.77;;;19.70;93.60;;;;;;5109364;27;20188;-57
2022/08/07 10:04:58;;;;;;;3.07;2.73;;;19.80;93.70;;;;;;5093476;27;20562;-56
2022/08/07 10:07:43;;;;;;;4.40;3.00;;;19.90;93.40;;;;;;5109881;27;20246;-57
2022/08/07 10:10:20;;;;;;;3.10;2.80;;;19.90;93.10;;;;;;5103636;27;20253;-57
2022/08/07 10:13:04;;;;;;;3.63;2.70;;;20.00;93.10;;;;;;5111204;27;20209;-56
2022/08/07 10:15:49;;;;;;;4.13;2.70;;;20.10;92.70;;;;;;5106320;27;20666;-57
2022/08/07 10:18:36;;;;;;;2.70;2.50;;;20.10;92.20;;;;;;5103824;27;20225;-56
2022/08/07 10:21:16;;;;;;;3.13;2.93;;;20.00;92.30;;;;;;5095448;27;20765;-56
2022/08/07 10:23:58;;;;;;;2.90;2.70;;;20.10;92.40;;;;;;5113451;27;20201;-56
2022/08/07 10:26:43;;;;;;;2.97;2.30;;;20.30;91.40;;;;;;5104880;27;20208;-56
2022/08/07 10:29:34;;;;;;;3.33;2.90;;;20.30;91.70;;;;;;5099660;28;20735;-57
2022/08/07 10:32:18;;;;;;;3.80;2.63;;;20.30;91.70;;;;;;5089439;27;20424;-56
2022/08/07 10:34:57;;;;;;;2.70;2.50;;;20.10;91.50;;;;;;5089280;27;20208;-59
2022/08/07 10:37:36;;;;;;;3.40;3.10;;;20.00;92.20;;;;;;5111915;27;20184;-57
2022/08/07 10:40:09;;;;;;;3.80;2.87;;;20.10;92.40;;;;;;5118541;27;20223;-57
2022/08/07 10:42:42;;;;;;;5.67;2.87;;;20.20;92.20;;;;;;5106562;28;20546;-57
2022/08/07 10:45:22;;;;;;;4.33;3.10;;;20.30;92.50;;;;;;5110989;28;20726;-58
2022/08/07 10:48:03;;;;;;;3.70;2.80;;;20.50;92.50;;;;;;5105138;28;20505;-57
2022/08/07 10:50:41;;;;;;;2.50;2.30;;;20.60;91.80;;;;;;5095405;28;20200;-58
2022/08/07 10:53:12;;;;;;;3.50;2.53;;;20.70;91.80;;;;;;5096496;28;20288;-55
2022/08/07 10:55:45;;;;;;;2.40;2.20;;;20.70;91.60;;;;;;5109473;28;20666;-57
2022/08/07 10:58:22;;;;;;;3.20;2.77;;;20.60;91.10;;;;;;5096078;28;20216;-54
2022/08/07 11:01:11;;;;;;;4.00;2.73;;;20.60;90.90;;;;;;5114701;28;20238;-58
2022/08/07 11:03:42;;;;;;;3.30;2.70;;;20.40;91.00;;;;;;5105996;28;20276;-55
2022/08/07 11:06:19;;;;;;;3.33;2.60;;;20.20;91.40;;;;;;5100570;28;20207;-56
2022/08/07 11:08:52;;;;;;;3.13;2.50;;;20.20;91.60;;;;;;5107533;27;20220;-57
2022/08/07 11:11:27;;;;;;;2.73;2.50;;;20.10;91.50;;;;;;5100751;28;21067;-58
2022/08/07 11:13:59;;;;;;;3.00;2.77;;;20.20;91.10;;;;;;5107123;28;20200;-58
2022/08/07 11:16:31;;;;;;;2.63;2.40;;;20.20;90.80;;;;;;5102328;28;20276;-56
2022/08/07 11:19:04;;;;;;;3.33;2.50;;;20.30;90.70;;;;;;5097953;28;20300;-58
2022/08/07 11:21:39;;;;;;;3.20;2.60;;;20.40;90.60;;;;;;5095811;28;20275;-55
2022/08/07 11:24:11;;;;;;;2.40;2.20;;;20.60;90.70;;;;;;5098538;28;20201;-54
2022/08/07 11:26:45;;;;;;;3.63;2.40;;;20.70;89.60;;;;;;5110754;28;20205;-56
2022/08/07 11:29:18;;;;;;;2.40;2.20;;;20.80;87.80;;;;;;5120058;28;20209;-53
2022/08/07 11:31:55;;;;;;;4.25;2.65;;;20.80;87.50;;;;;;5112758;28;20447;-55
2022/08/07 11:34:31;;;;;;;4.03;2.30;;;20.80;88.80;;;;;;5108154;28;20199;-57
2022/08/07 11:37:04;;;;;;;3.00;2.80;;;20.80;89.00;;;;;;5089393;28;20193;-54
2022/08/07 11:40:04;;;;;;;2.53;2.33;;;20.70;88.20;;;;;;5110434;28;20223;-57
2022/08/07 11:42:42;;;;;;;4.20;2.57;;;20.60;88.40;;;;;;5077530;28;20602;-54
2022/08/07 11:45:17;;;;;;;3.07;2.17;;;20.80;88.00;;;;;;5109443;27;20887;-56
2022/08/07 11:48:02;;;;;;;2.83;2.60;;;21.00;87.40;;;;;;5099796;27;20332;-57
2022/08/07 11:50:40;;;;;;;3.87;2.50;;;21.10;86.10;;;;;;5109902;27;20208;-54
2022/08/07 11:53:19;;;;;;;2.77;2.50;;;21.00;86.40;;;;;;5094280;27;20237;-56
2022/08/07 11:56:00;;;;;;;3.07;2.40;;;20.80;86.00;;;;;;5109774;27;20572;-56
2022/08/07 11:58:39;;;;;;;3.00;2.43;;;20.80;87.40;;;;;;5105446;27;20247;-56
2022/08/07 12:01:23;;;;;;;3.10;2.80;;;21.00;86.30;;;;;;5108578;27;20193;-55
2022/08/07 12:04:11;;;;;;;4.37;2.77;;;21.10;86.50;;;;;;5107140;27;20201;-57
2022/08/07 12:06:46;;;;;;;2.57;2.37;;;21.10;86.50;;;;;;5107965;27;20685;-57
2022/08/07 12:09:19;;;;;;;4.53;2.50;;;21.10;87.00;;;;;;5106801;27;20247;-57
2022/08/07 12:11:52;;;;;;;2.87;2.40;;;21.10;86.90;;;;;;5098556;27;20205;-56
2022/08/07 12:14:21;;;;;;;2.60;2.40;;;21.10;87.40;;;;;;5113222;27;20197;-57
2022/08/07 12:16:53;;;;;;;2.60;2.40;;;21.30;87.00;;;;;;5108103;27;20204;-58
2022/08/07 12:19:43;;;;;;;2.33;2.10;;;21.30;86.40;;;;;;5116353;27;20711;-57
2022/08/07 12:22:15;;;;;;;3.63;2.97;;;21.40;86.30;;;;;;5107258;27;20868;-58
2022/08/07 12:27:38;;;;;;;2.80;2.60;;;21.40;84.90;;;;;;5103152;27;20350;-57
2022/08/07 12:30:08;;;;;;;4.07;2.37;;;21.30;84.30;;;;;;5105061;27;20247;-57
2022/08/07 12:32:41;;;;;;;2.23;2.10;;;21.40;85.80;;;;;;5100795;27;20629;-57
2022/08/07 12:35:12;;;;;;;3.35;2.35;;;21.60;84.80;;;;;;5101734;27;20193;-57
2022/08/07 12:37:41;;;;;;;2.83;2.27;;;21.80;81.90;;;;;;5103254;27;20205;-57
2022/08/07 12:40:10;;;;;;;2.38;2.13;;;22.00;82.20;;;;;;5103577;27;20192;-57
2022/08/07 12:42:38;;;;;;;3.03;2.80;;;22.20;81.10;;;;;;5112557;27;20287;-57
2022/08/07 12:45:10;;;;;;;2.80;2.58;;;22.30;80.80;;;;;;5108546;27;20189;-57
2022/08/07 12:47:45;;;;;;;3.00;2.10;;;22.30;80.20;;;;;;5110342;27;20204;-57
2022/08/07 12:50:21;;;;;;;2.92;2.20;;;22.40;78.80;;;;;;5106363;27;22809;-57
2022/08/07 12:52:56;;;;;;;2.67;2.25;;;22.30;79.20;;;;;;5103784;27;20230;-57
2022/08/07 12:55:29;;;;;;;2.63;2.35;;;22.30;78.70;;;;;;5102796;27;20208;-56
2022/08/07 12:57:57;;;;;;;3.03;2.28;;;22.20;78.20;;;;;;5108971;27;20217;-58
2022/08/07 13:00:47;;;;;;;2.28;2.08;;;22.20;78.70;;;;;;5102290;27;20212;-56
2022/08/07 13:03:35;;;;;;;2.75;2.10;;;22.20;79.10;;;;;;5104549;27;20193;-57
2022/08/07 13:06:14;;;;;;;2.60;2.40;;;22.20;77.50;;;;;;5098167;27;20334;-58
2022/08/07 13:08:55;;;;;;;4.70;2.10;;;22.30;78.00;;;;;;5106079;27;20217;-56
2022/08/07 13:11:37;;;;;;;4.15;2.13;;;22.30;74.90;;;;;;5087471;27;20209;-55
2022/08/07 13:14:16;;;;;;;2.63;2.42;;;22.20;75.20;;;;;;5110311;27;20225;-56
2022/08/07 13:16:53;;;;;;;2.42;2.33;;;22.40;77.20;;;;;;5101495;27;20202;-57
2022/08/07 13:19:27;;;;;;;2.47;2.28;;;22.80;77.40;;;;;;5112006;27;20228;-57
2022/08/07 13:22:02;;;;;;;2.13;1.92;;;23.40;75.80;;;;;;5097704;27;20605;-58
2022/08/07 13:24:36;;;;;;;3.33;2.50;;;23.90;73.30;;;;;;5107808;27;20200;-56
2022/08/07 13:27:09;;;;;;;2.47;2.28;;;24.20;73.20;;;;;;5099221;27;20203;-56
2022/08/07 13:29:43;;;;;;;3.15;2.15;;;24.50;72.70;;;;;;5114293;27;20217;-57